Terminal Aerodrome Forecast
Issued by NWS

Home | Current Version | Previous Version | Graphics & Text | Print | Product List | Glossary On
Versions: 1 2 3 4 5 6 7 8 9 10 11 12 13 14 15 16 17 18 19
000
FTUS43 KGRB 170500
TAFAUW
TAF
KAUW 170520Z 1706/1806 VRB03KT 6SM BR SCT006 BKN060
      TEMPO 1706/1710 4SM BR BKN006
     FM171200 29008KT P6SM BKN015 OVC060
     FM171500 31012G20KT P6SM BKN015 OVC023 PROB30 1715/1721 -SHRA
     FM180200 33010KT P6SM BKN018 OVC030=

USA.gov is the U.S. government's official web portal to all federal, state and local government web resources and services.